Time;durP1;ratioP1;P1;durP2;ratioP2;P2;SDS_P1;SDS_P2;PMS_P1;PMS_P2;Temp;Humidity;BMP_temperature;BMP_pressure;BME280_temperature;BME280_humidity;BME280_pressure;Samples;Min_cycle;Max_cycle;Signal;HPM_P1;HPM_P2
2021/01/19 00:00:29;;;;;;;8.68;4.47;;;-0.90;99.90;;;;;;5084560;28;20556;-77
2021/01/19 00:02:55;;;;;;;10.32;4.30;;;-0.80;99.90;;;;;;5097863;28;20139;-77
2021/01/19 00:05:24;;;;;;;6.93;4.40;;;-0.80;99.90;;;;;;5105202;28;20071;-78
2021/01/19 00:07:50;;;;;;;7.82;4.63;;;-0.90;99.90;;;;;;5104670;28;20085;-77
2021/01/19 00:10:17;;;;;;;8.20;4.90;;;-0.90;99.90;;;;;;5103047;28;20131;-78
2021/01/19 00:12:44;;;;;;;5.72;4.65;;;-0.90;99.90;;;;;;5103979;28;20047;-76
2021/01/19 00:15:10;;;;;;;9.80;5.20;;;-0.90;99.90;;;;;;5105751;28;20047;-78
2021/01/19 00:17:37;;;;;;;11.63;5.00;;;-0.90;99.90;;;;;;5103895;28;20051;-78
2021/01/19 00:20:05;;;;;;;7.80;5.05;;;-1.00;99.90;;;;;;5104333;28;20050;-78
2021/01/19 00:22:35;;;;;;;8.95;5.20;;;-1.00;99.90;;;;;;5105992;28;20120;-78
2021/01/19 00:25:03;;;;;;;10.25;5.13;;;-1.00;99.90;;;;;;5103547;28;20043;-77
2021/01/19 00:27:29;;;;;;;7.45;5.72;;;-1.00;99.90;;;;;;5104233;28;20122;-77
2021/01/19 00:29:56;;;;;;;8.88;5.00;;;-0.90;99.90;;;;;;5105198;28;20123;-77
2021/01/19 00:32:22;;;;;;;9.25;4.65;;;-0.90;99.90;;;;;;5105351;28;20079;-77
2021/01/19 00:34:48;;;;;;;10.57;4.80;;;-0.90;99.90;;;;;;5098277;28;20075;-77
2021/01/19 00:37:17;;;;;;;8.60;5.22;;;-0.90;99.90;;;;;;5104959;28;20143;-77
2021/01/19 00:39:43;;;;;;;9.30;5.40;;;-0.90;99.90;;;;;;5082606;28;20098;-77
2021/01/19 00:42:12;;;;;;;7.20;5.35;;;-0.90;99.90;;;;;;5096664;28;20047;-77
2021/01/19 00:44:38;;;;;;;11.60;5.60;;;-0.90;99.90;;;;;;5104604;28;20119;-77
2021/01/19 00:47:05;;;;;;;9.00;4.57;;;-0.90;99.90;;;;;;5075498;28;20078;-77
2021/01/19 00:49:32;;;;;;;8.02;5.10;;;-0.90;99.90;;;;;;5102884;28;20047;-77
2021/01/19 00:52:02;;;;;;;11.00;5.40;;;-1.00;99.90;;;;;;5105962;28;20093;-78
2021/01/19 00:54:28;;;;;;;10.38;5.72;;;-1.00;99.90;;;;;;5103915;28;20162;-78
2021/01/19 00:56:54;;;;;;;14.10;5.85;;;-1.10;99.90;;;;;;5103505;28;20044;-78
2021/01/19 00:59:21;;;;;;;11.02;5.15;;;-1.20;99.90;;;;;;5103477;28;20075;-78
2021/01/19 01:01:48;;;;;;;11.27;5.85;;;-1.30;99.90;;;;;;5101925;28;20072;-77
2021/01/19 01:04:15;;;;;;;12.85;6.95;;;-1.40;99.90;;;;;;5092862;28;20620;-77
2021/01/19 01:06:42;;;;;;;11.40;6.13;;;-1.40;99.90;;;;;;5104963;28;20075;-78
2021/01/19 01:09:08;;;;;;;12.23;6.03;;;-1.40;99.90;;;;;;5104334;28;20096;-77
2021/01/19 01:11:41;;;;;;;17.83;6.32;;;-1.50;99.90;;;;;;5102405;28;20075;-77
2021/01/19 01:14:10;;;;;;;11.60;5.80;;;-1.50;99.90;;;;;;5104954;28;20047;-79
2021/01/19 01:16:38;;;;;;;7.80;5.85;;;-1.50;99.90;;;;;;5103579;28;20071;-78
2021/01/19 01:19:08;;;;;;;18.83;5.75;;;-1.50;99.90;;;;;;5103516;28;20047;-78
2021/01/19 01:21:38;;;;;;;9.18;5.28;;;-1.60;99.90;;;;;;5105081;28;20070;-77
2021/01/19 01:24:06;;;;;;;8.57;5.35;;;-1.60;99.90;;;;;;5103718;28;20518;-77
2021/01/19 01:26:34;;;;;;;8.00;5.60;;;-1.50;99.90;;;;;;5103866;28;20400;-78
2021/01/19 01:29:03;;;;;;;7.45;5.07;;;-1.50;99.90;;;;;;5105001;28;20515;-77
2021/01/19 01:31:30;;;;;;;9.02;5.47;;;-1.50;99.90;;;;;;5103099;28;20446;-77
2021/01/19 01:33:56;;;;;;;10.90;6.13;;;-1.50;99.90;;;;;;5102232;28;20458;-78
2021/01/19 01:36:23;;;;;;;10.48;4.97;;;-1.40;99.90;;;;;;5088115;28;20051;-77
2021/01/19 01:38:50;;;;;;;11.88;5.80;;;-1.50;99.90;;;;;;5087646;28;20048;-77
2021/01/19 01:41:18;;;;;;;10.93;4.85;;;-1.40;99.90;;;;;;5100977;28;20166;-77
2021/01/19 01:43:47;;;;;;;12.20;5.30;;;-1.40;99.90;;;;;;5104578;28;20158;-77
2021/01/19 01:46:15;;;;;;;9.88;5.38;;;-1.40;99.90;;;;;;5103833;28;20644;-77
2021/01/19 01:48:48;;;;;;;12.23;5.43;;;-1.40;99.90;;;;;;5103548;28;20062;-77
2021/01/19 01:51:16;;;;;;;10.75;5.10;;;-1.40;99.90;;;;;;5102580;28;20079;-77
2021/01/19 01:53:43;;;;;;;13.00;5.65;;;-1.40;99.90;;;;;;5104037;28;20035;-77
2021/01/19 01:56:13;;;;;;;9.07;5.13;;;-1.40;99.90;;;;;;5101642;28;20097;-77
2021/01/19 01:58:44;;;;;;;7.15;5.35;;;-1.40;99.90;;;;;;5102078;28;20040;-77
2021/01/19 02:01:11;;;;;;;9.93;5.30;;;-1.40;99.90;;;;;;5101924;28;20123;-77
2021/01/19 02:03:39;;;;;;;6.50;4.53;;;-1.30;99.90;;;;;;5089166;28;20126;-77
2021/01/19 02:06:06;;;;;;;8.20;5.40;;;-1.30;99.90;;;;;;5090032;28;20040;-77
2021/01/19 02:08:57;;;;;;;8.95;5.60;;;-1.30;99.90;;;;;;5087020;28;20440;-77
2021/01/19 02:11:27;;;;;;;7.28;4.85;;;-1.20;99.90;;;;;;5097200;28;20739;-78
2021/01/19 02:13:56;;;;;;;10.68;5.00;;;-1.20;99.90;;;;;;5102986;28;20134;-76
2021/01/19 02:16:28;;;;;;;7.60;4.57;;;-1.10;99.90;;;;;;5089553;28;20052;-78
2021/01/19 02:19:16;;;;;;;;;;;-1.10;99.90;;;;;;5097920;28;20075;-76
2021/01/19 02:22:08;;;;;;;9.13;4.20;;;-1.10;99.90;;;;;;5095749;28;20022;-76
2021/01/19 02:25:02;;;;;;;6.13;4.15;;;-1.10;99.90;;;;;;5102820;28;20067;-76
2021/01/19 02:28:06;;;;;;;7.80;4.13;;;-1.10;99.90;;;;;;5101824;28;20051;-76
2021/01/19 02:30:57;;;;;;;6.75;4.07;;;-1.00;99.90;;;;;;5104041;28;20115;-77
2021/01/19 02:33:33;;;;;;;6.38;4.30;;;-0.90;99.90;;;;;;5089233;28;20431;-77
2021/01/19 02:36:13;;;;;;;10.82;4.10;;;-0.90;99.90;;;;;;5106867;28;20200;-77
2021/01/19 02:38:55;;;;;;;4.93;3.58;;;-0.80;99.90;;;;;;5104138;28;20040;-77
2021/01/19 02:41:23;;;;;;;8.35;4.20;;;-0.80;99.90;;;;;;5107185;28;20401;-77
2021/01/19 02:44:04;;;;;;;8.05;4.22;;;-0.80;99.90;;;;;;5091353;28;20059;-77
2021/01/19 02:46:33;;;;;;;8.10;4.05;;;-0.80;99.90;;;;;;5098386;28;20083;-77
2021/01/19 02:48:59;;;;;;;8.40;4.47;;;-0.90;99.90;;;;;;5104806;28;20230;-77
2021/01/19 02:51:28;;;;;;;8.02;4.25;;;-0.80;99.90;;;;;;5090951;28;20152;-78
2021/01/19 02:53:56;;;;;;;6.72;4.03;;;-0.90;99.90;;;;;;5085468;28;20130;-76
2021/01/19 02:56:46;;;;;;;8.77;4.95;;;-0.90;99.90;;;;;;5103943;28;20975;-77
2021/01/19 02:59:37;;;;;;;5.72;3.90;;;-1.00;99.90;;;;;;5105537;28;20047;-76
2021/01/19 03:02:16;;;;;;;10.05;5.88;;;-1.00;99.90;;;;;;5095683;28;20128;-77
2021/01/19 03:04:44;;;;;;;9.73;4.40;;;-1.00;99.90;;;;;;5104277;28;20142;-78
2021/01/19 03:07:14;;;;;;;8.02;4.50;;;-1.00;99.90;;;;;;5100866;28;20047;-76
2021/01/19 03:09:43;;;;;;;7.10;4.20;;;-1.00;99.90;;;;;;5106130;28;20753;-77
2021/01/19 03:12:13;;;;;;;7.47;4.20;;;-1.00;99.90;;;;;;5105260;28;20044;-76
2021/01/19 03:14:40;;;;;;;7.95;4.15;;;-1.00;99.90;;;;;;5095621;28;20135;-76
2021/01/19 03:17:14;;;;;;;10.25;4.38;;;-1.00;99.90;;;;;;5106772;28;20169;-76
2021/01/19 03:19:41;;;;;;;9.50;4.25;;;-1.00;99.90;;;;;;5104900;28;20127;-76
2021/01/19 03:22:10;;;;;;;9.10;4.55;;;-1.00;99.90;;;;;;5106694;28;20051;-76
2021/01/19 03:24:37;;;;;;;14.77;5.05;;;-1.00;99.90;;;;;;5101888;27;20058;-77
2021/01/19 03:27:05;;;;;;;7.80;4.70;;;-1.00;99.90;;;;;;5106466;28;20640;-77
2021/01/19 03:29:32;;;;;;;9.45;4.40;;;-1.00;99.90;;;;;;5106084;28;20086;-77
2021/01/19 03:32:03;;;;;;;10.63;5.15;;;-0.90;99.90;;;;;;5105195;28;20097;-76
2021/01/19 03:34:30;;;;;;;8.35;4.75;;;-0.90;99.90;;;;;;5105487;27;20483;-77
2021/01/19 03:36:57;;;;;;;10.48;4.72;;;-0.90;99.90;;;;;;5088578;28;20063;-76
2021/01/19 03:39:24;;;;;;;6.20;4.20;;;-0.90;99.90;;;;;;5105623;28;20562;-77
2021/01/19 03:41:51;;;;;;;6.50;4.25;;;-0.90;99.90;;;;;;5104848;28;20108;-76
2021/01/19 03:44:19;;;;;;;8.18;4.47;;;-0.90;99.90;;;;;;5105580;28;20130;-77
2021/01/19 03:46:46;;;;;;;8.00;4.55;;;-0.90;99.90;;;;;;5101000;28;20077;-77
2021/01/19 03:49:12;;;;;;;9.57;4.65;;;-0.80;99.90;;;;;;5105054;28;20585;-77
2021/01/19 03:51:41;;;;;;;5.97;4.38;;;-0.90;99.90;;;;;;5105472;28;20123;-77
2021/01/19 03:54:08;;;;;;;8.18;4.78;;;-0.90;99.90;;;;;;5105832;28;20123;-77
2021/01/19 03:56:35;;;;;;;12.32;4.85;;;-0.90;99.90;;;;;;5103816;28;20093;-77
2021/01/19 03:59:04;;;;;;;7.53;4.65;;;-1.00;99.90;;;;;;5106272;28;20100;-76
2021/01/19 04:01:30;;;;;;;9.00;4.65;;;-1.00;99.90;;;;;;5105771;28;20110;-77
2021/01/19 04:03:56;;;;;;;9.88;4.85;;;-1.00;99.90;;;;;;5100952;28;20135;-76
2021/01/19 04:06:23;;;;;;;8.90;4.80;;;-1.10;99.90;;;;;;5104348;28;20047;-77
2021/01/19 04:08:49;;;;;;;8.77;5.47;;;-1.10;99.90;;;;;;5105439;28;20528;-76
2021/01/19 04:11:18;;;;;;;9.10;5.50;;;-1.10;99.90;;;;;;5082423;28;20625;-76
2021/01/19 04:13:47;;;;;;;12.98;6.18;;;-1.10;99.90;;;;;;5087462;28;20043;-76
2021/01/19 04:16:15;;;;;;;11.00;6.53;;;-1.20;99.90;;;;;;5104586;28;20047;-77
2021/01/19 04:18:42;;;;;;;10.00;6.03;;;-1.20;99.90;;;;;;5104983;28;20468;-78
2021/01/19 04:21:09;;;;;;;8.07;5.43;;;-1.30;99.90;;;;;;5105595;28;20043;-77
2021/01/19 04:23:36;;;;;;;8.63;5.53;;;-1.30;99.90;;;;;;5103494;28;20055;-77
2021/01/19 04:26:02;;;;;;;10.68;5.85;;;-1.40;99.90;;;;;;5100413;28;20114;-76
2021/01/19 04:28:33;;;;;;;11.60;5.80;;;-1.40;99.90;;;;;;5105202;28;20134;-77
2021/01/19 04:31:02;;;;;;;9.55;5.57;;;-1.40;99.90;;;;;;5101345;28;20634;-77
2021/01/19 04:33:39;;;;;;;8.38;5.82;;;-1.40;99.90;;;;;;5098581;28;20562;-77
2021/01/19 04:36:08;;;;;;;11.05;6.18;;;-1.40;99.90;;;;;;5103767;28;20076;-78
2021/01/19 04:38:34;;;;;;;9.00;5.30;;;-1.40;99.90;;;;;;5104974;27;20051;-77
2021/01/19 04:41:01;;;;;;;10.25;5.72;;;-1.40;99.90;;;;;;5105116;28;20517;-77
2021/01/19 04:43:30;;;;;;;7.63;5.32;;;-1.40;99.90;;;;;;5103820;28;20055;-78
2021/01/19 04:45:57;;;;;;;9.85;5.22;;;-1.40;99.90;;;;;;5103272;28;20420;-77
2021/01/19 04:48:25;;;;;;;10.07;5.47;;;-1.40;99.90;;;;;;5103807;28;20422;-78
2021/01/19 04:50:52;;;;;;;10.02;5.32;;;-1.40;99.90;;;;;;5105621;28;20047;-77
2021/01/19 04:53:25;;;;;;;7.85;4.95;;;-1.40;99.90;;;;;;5104277;28;20068;-78
2021/01/19 04:55:55;;;;;;;10.63;5.22;;;-1.30;99.90;;;;;;5103670;28;20188;-81
2021/01/19 04:58:23;;;;;;;13.35;6.75;;;-1.40;99.90;;;;;;5095334;28;20130;-81
2021/01/19 05:01:15;;;;;;;8.45;5.25;;;-1.40;99.90;;;;;;5104827;28;20135;-81
2021/01/19 05:04:01;;;;;;;11.18;5.38;;;-1.40;99.90;;;;;;5102171;28;20777;-80
2021/01/19 05:07:15;;;;;;;8.35;5.32;;;-1.40;99.90;;;;;;5103293;28;20142;-82
2021/01/19 05:09:59;;;;;;;8.38;5.85;;;-1.40;99.90;;;;;;5097718;28;20441;-80
2021/01/19 05:12:42;;;;;;;9.45;4.93;;;-1.40;99.90;;;;;;5102902;28;20622;-81
2021/01/19 05:15:13;;;;;;;11.35;5.38;;;-1.40;99.90;;;;;;5102763;28;20035;-80
2021/01/19 05:17:47;;;;;;;7.90;5.40;;;-1.40;99.90;;;;;;5103993;28;20051;-77
2021/01/19 05:20:13;;;;;;;7.03;4.88;;;-1.50;99.90;;;;;;5098891;28;20549;-76
2021/01/19 05:22:43;;;;;;;10.90;4.95;;;-1.50;99.90;;;;;;5096570;28;20127;-77
2021/01/19 05:25:12;;;;;;;10.50;5.20;;;-1.50;99.90;;;;;;5090914;28;20294;-77
2021/01/19 05:27:39;;;;;;;6.18;5.25;;;-1.60;99.90;;;;;;5101405;28;20055;-78
2021/01/19 05:30:08;;;;;;;13.73;5.40;;;-1.60;99.90;;;;;;5082337;28;20150;-75
2021/01/19 05:32:42;;;;;;;13.68;5.40;;;-1.60;99.90;;;;;;5099608;28;20051;-75
2021/01/19 05:35:19;;;;;;;9.27;5.18;;;-1.60;99.90;;;;;;5103417;28;20673;-76
2021/01/19 05:37:58;;;;;;;8.00;5.15;;;-1.60;99.90;;;;;;5102955;28;20044;-76
2021/01/19 05:40:27;;;;;;;10.68;5.53;;;-1.60;99.90;;;;;;5102881;28;20092;-76
2021/01/19 05:42:54;;;;;;;12.93;5.32;;;-1.60;99.90;;;;;;5102628;28;20086;-76
2021/01/19 05:45:28;;;;;;;12.52;5.32;;;-1.60;99.90;;;;;;5101293;28;20127;-76
2021/01/19 05:47:55;;;;;;;11.38;5.60;;;-1.60;99.90;;;;;;5101448;28;20043;-76
2021/01/19 05:50:22;;;;;;;12.10;5.28;;;-1.60;99.90;;;;;;5101332;28;20132;-76
2021/01/19 05:52:56;;;;;;;9.27;5.03;;;-1.60;99.90;;;;;;5104556;28;20100;-76
2021/01/19 05:55:26;;;;;;;10.50;5.53;;;-1.60;99.90;;;;;;5107516;28;20108;-76
2021/01/19 05:57:54;;;;;;;11.90;5.80;;;-1.60;99.90;;;;;;5107966;28;20055;-76
2021/01/19 06:00:25;;;;;;;7.13;4.97;;;-1.60;99.90;;;;;;5107905;28;20563;-76
2021/01/19 06:02:55;;;;;;;6.90;4.80;;;-1.60;99.90;;;;;;5099027;28;20072;-76
2021/01/19 06:05:21;;;;;;;11.38;5.13;;;-1.60;99.90;;;;;;5102205;28;20048;-75
2021/01/19 06:07:48;;;;;;;10.85;5.63;;;-1.60;99.90;;;;;;5107157;28;20071;-75
2021/01/19 06:10:16;;;;;;;7.82;5.03;;;-1.70;99.90;;;;;;5102535;28;20120;-76
2021/01/19 06:12:43;;;;;;;9.82;6.22;;;-1.70;99.90;;;;;;5106954;28;20071;-75
2021/01/19 06:15:10;;;;;;;14.30;5.90;;;-1.70;99.90;;;;;;5106180;28;20066;-75
2021/01/19 06:17:40;;;;;;;11.15;5.65;;;-1.80;99.90;;;;;;5108443;28;20078;-74
2021/01/19 06:20:08;;;;;;;11.57;5.95;;;-1.80;99.90;;;;;;5106182;28;20096;-74
2021/01/19 06:22:36;;;;;;;7.93;5.57;;;-1.90;99.90;;;;;;5106655;28;20059;-74
2021/01/19 06:25:04;;;;;;;9.07;5.35;;;-1.90;99.90;;;;;;5101772;28;20039;-75
2021/01/19 06:27:33;;;;;;;10.05;5.63;;;-2.00;99.90;;;;;;5107721;28;20042;-75
2021/01/19 06:29:59;;;;;;;10.70;6.05;;;-2.00;99.90;;;;;;5106750;28;20063;-75
2021/01/19 06:32:30;;;;;;;9.82;5.80;;;-2.00;99.90;;;;;;5106728;28;20059;-76
2021/01/19 06:35:12;;;;;;;10.25;5.65;;;-2.00;99.90;;;;;;5105718;28;20118;-75
2021/01/19 06:37:39;;;;;;;9.35;5.28;;;-2.00;99.90;;;;;;5105963;28;20059;-75
2021/01/19 06:40:09;;;;;;;12.20;5.97;;;-2.00;99.90;;;;;;5101055;28;20101;-75
2021/01/19 06:42:38;;;;;;;11.38;6.43;;;-2.00;99.90;;;;;;5099615;28;20048;-75
2021/01/19 06:45:12;;;;;;;12.00;6.10;;;-2.00;99.90;;;;;;5097749;28;20047;-76
2021/01/19 06:47:47;;;;;;;19.58;8.90;;;-2.00;99.90;;;;;;5105435;28;20047;-77
2021/01/19 06:50:14;;;;;;;11.60;6.32;;;-2.00;99.90;;;;;;5102529;28;20075;-76
2021/01/19 06:52:46;;;;;;;13.95;7.30;;;-2.00;99.90;;;;;;5106908;28;20168;-76
2021/01/19 06:55:43;;;;;;;11.88;6.05;;;-2.00;99.90;;;;;;5105908;28;20757;-76
2021/01/19 06:58:18;;;;;;;9.93;5.28;;;-2.00;99.90;;;;;;5079683;28;20065;-75
2021/01/19 07:00:54;;;;;;;14.45;6.55;;;-2.00;99.90;;;;;;5106394;28;20039;-75
2021/01/19 07:03:22;;;;;;;14.90;6.90;;;-2.00;99.90;;;;;;5106089;28;20086;-76
2021/01/19 07:05:54;;;;;;;11.32;6.25;;;-2.00;99.90;;;;;;5105249;28;20137;-75
2021/01/19 07:08:21;;;;;;;11.77;6.80;;;-2.10;99.90;;;;;;5099210;28;20055;-76
2021/01/19 07:10:53;;;;;;;13.60;6.45;;;-2.10;99.90;;;;;;5103870;28;20039;-75
2021/01/19 07:13:24;;;;;;;14.70;6.55;;;-2.10;99.90;;;;;;5106776;28;20075;-76
2021/01/19 07:16:06;;;;;;;12.25;6.10;;;-2.10;99.90;;;;;;5105348;28;20050;-76
2021/01/19 07:19:09;;;;;;;13.48;6.47;;;-2.10;99.90;;;;;;5106299;28;20047;-76
2021/01/19 07:21:42;;;;;;;11.82;6.72;;;-2.10;99.90;;;;;;5105927;28;20044;-78
2021/01/19 07:24:15;;;;;;;;;;;-2.10;99.90;;;;;;5105058;28;20068;-77
2021/01/19 07:26:44;;;;;;;11.52;7.28;;;-2.10;99.90;;;;;;5096086;28;19920;-78
2021/01/19 07:29:14;;;;;;;9.73;6.53;;;-2.10;99.90;;;;;;5105681;28;20047;-75
2021/01/19 07:31:40;;;;;;;13.00;7.30;;;-2.10;99.90;;;;;;5088883;28;20073;-75
2021/01/19 07:34:12;;;;;;;14.80;7.65;;;-2.10;99.90;;;;;;5106100;28;20450;-77
2021/01/19 07:36:38;;;;;;;23.70;11.98;;;-2.20;99.90;;;;;;5106123;28;20220;-75
2021/01/19 07:39:20;;;;;;;14.90;8.57;;;-2.10;99.90;;;;;;5103999;28;20409;-77
2021/01/19 07:41:49;;;;;;;14.55;7.80;;;-2.10;99.90;;;;;;5102543;28;20411;-76
2021/01/19 07:44:23;;;;;;;16.33;8.63;;;-2.00;99.90;;;;;;5102442;28;20063;-76
2021/01/19 07:47:09;;;;;;;;;;;-2.00;99.90;;;;;;5096245;28;20055;-76
2021/01/19 07:49:36;;;;;;;13.18;8.73;;;-1.90;99.90;;;;;;5100744;28;19981;-76
2021/01/19 07:52:16;;;;;;;15.75;9.15;;;-1.90;99.90;;;;;;5107116;28;20050;-77
2021/01/19 07:54:45;;;;;;;12.30;8.18;;;-1.80;99.90;;;;;;5104934;28;20494;-76
2021/01/19 07:57:16;;;;;;;18.60;10.23;;;-1.70;99.90;;;;;;5103248;28;20043;-77
2021/01/19 07:59:44;;;;;;;20.77;10.13;;;-1.60;99.90;;;;;;5103837;28;20051;-78
2021/01/19 08:02:24;;;;;;;14.95;7.97;;;-1.50;99.90;;;;;;5093284;28;20133;-77
2021/01/19 08:05:02;;;;;;;12.20;7.72;;;-1.50;99.90;;;;;;5105210;28;20051;-77
2021/01/19 08:07:42;;;;;;;11.80;7.88;;;-1.30;99.90;;;;;;5093423;28;20391;-77
2021/01/19 08:10:28;;;;;;;12.40;7.13;;;-1.20;99.90;;;;;;5112464;27;20093;-77
2021/01/19 08:12:57;;;;;;;17.20;7.30;;;-1.10;99.90;;;;;;5096697;28;20070;-76
2021/01/19 08:15:32;;;;;;;14.57;7.80;;;-1.00;99.90;;;;;;5104034;28;20132;-77
2021/01/19 08:18:00;;;;;;;18.25;9.23;;;-1.00;99.90;;;;;;5103929;28;20467;-76
2021/01/19 08:20:41;;;;;;;15.80;8.60;;;-1.00;99.90;;;;;;5103122;28;20198;-76
2021/01/19 08:23:24;;;;;;;13.38;8.00;;;-0.90;99.90;;;;;;5105072;28;20051;-76
2021/01/19 08:26:00;;;;;;;;;;;-0.80;99.90;;;;;;5101590;28;20134;-77
2021/01/19 08:28:28;;;;;;;12.77;6.72;;;-0.70;99.90;;;;;;5105270;28;19920;-76
2021/01/19 08:30:54;;;;;;;18.13;7.85;;;-0.70;99.90;;;;;;5105237;28;20055;-76
2021/01/19 08:33:24;;;;;;;16.10;7.78;;;-0.60;99.90;;;;;;5103204;28;20042;-76
2021/01/19 08:35:51;;;;;;;13.75;7.60;;;-0.60;99.90;;;;;;5105291;28;20051;-77
2021/01/19 08:38:24;;;;;;;14.15;7.60;;;-0.50;99.90;;;;;;5103499;28;20058;-76
2021/01/19 08:40:50;;;;;;;;;;;-0.40;99.90;;;;;;5099352;28;20043;-76
2021/01/19 08:43:22;;;;;;;13.57;7.43;;;-0.30;99.90;;;;;;5105526;28;20300;-77
2021/01/19 08:45:48;;;;;;;15.85;7.35;;;-0.30;99.90;;;;;;5105489;28;20332;-77
2021/01/19 08:48:18;;;;;;;11.57;7.55;;;-0.20;99.90;;;;;;5101816;28;20165;-77
2021/01/19 08:50:47;;;;;;;10.73;7.40;;;-0.20;99.90;;;;;;5100737;28;20454;-77
2021/01/19 08:53:14;;;;;;;14.35;7.00;;;-0.10;99.90;;;;;;5105817;28;20044;-75
2021/01/19 08:55:45;;;;;;;10.40;6.53;;;-0.10;99.90;;;;;;5105100;28;20048;-76
2021/01/19 08:58:19;;;;;;;10.73;6.78;;;0.00;99.90;;;;;;5104849;28;20124;-76
2021/01/19 09:00:46;;;;;;;11.73;6.85;;;-0.10;99.90;;;;;;5101607;28;20564;-75
2021/01/19 09:03:13;;;;;;;12.98;6.80;;;-0.10;99.90;;;;;;5100385;28;20086;-75
2021/01/19 09:06:10;;;;;;;15.55;7.68;;;-0.20;99.90;;;;;;5098294;28;20352;-74
2021/01/19 09:08:43;;;;;;;11.30;6.63;;;-0.10;99.90;;;;;;5102344;28;20055;-74
2021/01/19 09:11:12;;;;;;;14.82;7.70;;;-0.10;99.90;;;;;;5102040;28;20064;-75
2021/01/19 09:14:08;;;;;;;13.32;7.38;;;-0.10;99.90;;;;;;5103786;28;20354;-75
2021/01/19 09:16:36;;;;;;;11.57;7.28;;;0.00;99.90;;;;;;5090542;28;20051;-74
2021/01/19 09:19:08;;;;;;;14.80;7.28;;;0.00;99.90;;;;;;5104777;28;20039;-75
2021/01/19 09:21:38;;;;;;;15.88;6.82;;;0.00;99.90;;;;;;5090126;28;20047;-73
2021/01/19 09:24:19;;;;;;;13.38;6.88;;;0.00;99.90;;;;;;5099796;28;20495;-75
2021/01/19 09:27:00;;;;;;;10.02;7.13;;;0.00;99.90;;;;;;5093704;28;20170;-74
2021/01/19 09:29:33;;;;;;;12.25;6.68;;;0.00;99.90;;;;;;5103813;28;20722;-74
2021/01/19 09:32:04;;;;;;;11.77;6.55;;;0.00;99.90;;;;;;5092182;28;20143;-74
2021/01/19 09:34:31;;;;;;;9.82;7.13;;;0.00;99.90;;;;;;5101217;28;20039;-74
2021/01/19 09:37:00;;;;;;;13.15;6.18;;;0.10;99.90;;;;;;5103621;28;20062;-75
2021/01/19 09:39:31;;;;;;;12.32;6.40;;;0.10;99.90;;;;;;5102769;28;20687;-75
2021/01/19 09:42:04;;;;;;;12.05;6.22;;;0.10;99.90;;;;;;5109723;27;20143;-74
2021/01/19 09:44:32;;;;;;;14.98;7.38;;;0.20;99.90;;;;;;5080033;28;20492;-74
2021/01/19 09:47:04;;;;;;;14.07;7.35;;;0.20;99.90;;;;;;5105017;28;20071;-73
2021/01/19 09:49:34;;;;;;;14.30;8.03;;;0.10;99.90;;;;;;5088643;28;20051;-74
2021/01/19 09:52:12;;;;;;;14.63;6.72;;;0.20;99.90;;;;;;5092510;28;20100;-74
2021/01/19 09:54:39;;;;;;;13.10;7.13;;;0.20;99.90;;;;;;5084761;28;20490;-73
2021/01/19 09:57:09;;;;;;;12.65;7.43;;;0.20;99.90;;;;;;5092679;28;20123;-75
2021/01/19 09:59:41;;;;;;;14.57;7.18;;;0.30;99.90;;;;;;5101954;28;20491;-74
2021/01/19 10:02:09;;;;;;;14.43;7.10;;;0.40;99.90;;;;;;5098985;28;20051;-74
2021/01/19 10:04:36;;;;;;;11.60;6.50;;;0.40;99.90;;;;;;5103251;28;20040;-74
2021/01/19 10:07:08;;;;;;;19.55;7.63;;;0.40;99.90;;;;;;5104293;28;20093;-75
2021/01/19 10:09:38;;;;;;;18.85;7.82;;;0.40;99.90;;;;;;5101039;28;20645;-74
2021/01/19 10:12:07;;;;;;;13.25;7.45;;;0.30;99.90;;;;;;5104395;28;20051;-75
2021/01/19 10:14:34;;;;;;;15.10;7.15;;;0.30;99.90;;;;;;5103265;28;20452;-75
2021/01/19 10:17:32;;;;;;;9.38;6.65;;;0.40;99.90;;;;;;5103271;28;20651;-74
2021/01/19 10:20:13;;;;;;;13.55;6.55;;;0.40;99.90;;;;;;5101456;28;20040;-74
2021/01/19 10:22:42;;;;;;;11.48;6.32;;;0.40;99.90;;;;;;5102864;28;20070;-74
2021/01/19 10:25:11;;;;;;;14.93;6.40;;;0.50;99.90;;;;;;5093110;28;20130;-74
2021/01/19 10:27:41;;;;;;;9.55;6.60;;;0.60;99.90;;;;;;5104236;28;20129;-74
2021/01/19 10:30:11;;;;;;;12.45;7.13;;;0.60;99.90;;;;;;5103662;28;20518;-75
2021/01/19 10:32:47;;;;;;;14.73;6.40;;;0.60;99.90;;;;;;5104231;28;20406;-75
2021/01/19 10:35:26;;;;;;;14.80;6.88;;;0.70;99.90;;;;;;5093592;28;20238;-75
2021/01/19 10:37:56;;;;;;;16.77;7.40;;;0.80;99.90;;;;;;5104282;28;20413;-74
2021/01/19 10:40:25;;;;;;;9.95;6.45;;;0.80;99.90;;;;;;5101349;28;20055;-74
2021/01/19 10:42:55;;;;;;;16.35;6.97;;;0.80;99.90;;;;;;5107398;28;20100;-74
2021/01/19 10:45:30;;;;;;;10.30;5.68;;;0.90;99.90;;;;;;5106585;28;20055;-74
2021/01/19 10:47:59;;;;;;;11.52;6.38;;;0.90;99.90;;;;;;5105045;28;20066;-76
2021/01/19 10:50:31;;;;;;;11.02;6.55;;;1.00;99.90;;;;;;5104866;28;20047;-75
2021/01/19 10:53:05;;;;;;;15.15;7.43;;;1.20;99.90;;;;;;5106483;28;20078;-75
2021/01/19 10:55:35;;;;;;;12.75;6.57;;;1.30;99.90;;;;;;5108797;28;20047;-75
2021/01/19 10:58:04;;;;;;;14.85;6.70;;;1.30;99.90;;;;;;5109883;28;20674;-74
2021/01/19 11:00:33;;;;;;;11.15;6.63;;;1.30;99.90;;;;;;5108262;28;20047;-75
2021/01/19 11:03:02;;;;;;;11.65;6.75;;;1.30;99.90;;;;;;5108534;28;20146;-75
2021/01/19 11:05:29;;;;;;;12.27;6.65;;;1.50;99.90;;;;;;5107297;28;20083;-75
2021/01/19 11:07:59;;;;;;;10.35;6.07;;;1.50;99.90;;;;;;5108683;28;20043;-75
2021/01/19 11:10:26;;;;;;;9.88;5.88;;;1.60;99.90;;;;;;5104760;28;20051;-76
2021/01/19 11:12:54;;;;;;;13.05;6.22;;;1.60;99.90;;;;;;5103409;28;20791;-75
2021/01/19 11:15:23;;;;;;;13.25;6.63;;;1.50;99.90;;;;;;5105332;28;20179;-75
2021/01/19 11:17:52;;;;;;;10.88;6.47;;;1.60;99.90;;;;;;5104735;28;20044;-76
2021/01/19 11:20:19;;;;;;;8.93;5.43;;;1.60;99.90;;;;;;5104728;28;20075;-74
2021/01/19 11:22:47;;;;;;;14.40;6.50;;;1.60;99.90;;;;;;5106977;28;20043;-74
2021/01/19 11:25:15;;;;;;;12.45;6.00;;;1.50;99.90;;;;;;5094942;28;20048;-74
2021/01/19 11:27:41;;;;;;;10.00;6.20;;;1.50;99.90;;;;;;5103003;28;20427;-74
2021/01/19 11:30:09;;;;;;;13.73;6.53;;;1.50;99.90;;;;;;5106084;28;20118;-74
2021/01/19 11:32:35;;;;;;;11.95;6.63;;;1.50;99.90;;;;;;5106922;28;20047;-75
2021/01/19 11:35:05;;;;;;;11.13;6.47;;;1.50;99.90;;;;;;5104625;28;20040;-75
2021/01/19 11:37:32;;;;;;;8.98;5.30;;;1.60;99.90;;;;;;5105494;28;20055;-75
2021/01/19 11:40:03;;;;;;;10.43;6.22;;;1.60;99.90;;;;;;5106235;28;20044;-73
2021/01/19 11:42:30;;;;;;;12.35;7.43;;;1.60;99.90;;;;;;5096945;28;20048;-74
2021/01/19 11:44:56;;;;;;;13.18;7.03;;;1.60;99.90;;;;;;5100142;28;20055;-74
2021/01/19 11:47:23;;;;;;;10.30;7.43;;;1.60;99.90;;;;;;5101951;28;20062;-75
2021/01/19 11:49:49;;;;;;;11.07;7.13;;;1.60;99.90;;;;;;5105574;28;20048;-74
2021/01/19 11:52:18;;;;;;;13.82;6.22;;;1.60;99.90;;;;;;5104198;28;20128;-75
2021/01/19 11:54:45;;;;;;;14.13;7.18;;;1.70;99.90;;;;;;5105751;27;20047;-76
2021/01/19 11:57:13;;;;;;;9.15;5.97;;;1.80;99.90;;;;;;5106271;28;20059;-74
2021/01/19 11:59:40;;;;;;;11.85;6.30;;;1.70;99.90;;;;;;5104678;28;20047;-75
2021/01/19 12:02:09;;;;;;;10.95;6.03;;;1.70;99.90;;;;;;5105941;28;20122;-74
2021/01/19 12:04:36;;;;;;;9.68;6.07;;;1.80;99.90;;;;;;5104197;28;20036;-73
2021/01/19 12:07:07;;;;;;;10.35;5.80;;;1.90;99.90;;;;;;5100936;28;20044;-74
2021/01/19 12:09:33;;;;;;;13.45;6.80;;;1.90;99.90;;;;;;5104334;28;20489;-74
2021/01/19 12:12:02;;;;;;;11.00;6.28;;;2.00;99.90;;;;;;5104564;28;20187;-74
2021/01/19 12:14:29;;;;;;;11.10;6.47;;;2.00;99.90;;;;;;5104367;28;20062;-74
2021/01/19 12:16:59;;;;;;;13.35;5.47;;;2.00;99.90;;;;;;5104109;28;20067;-73
2021/01/19 12:19:28;;;;;;;9.45;5.75;;;2.00;99.90;;;;;;5104416;28;20073;-75
2021/01/19 12:21:58;;;;;;;9.18;5.57;;;2.00;99.90;;;;;;5096064;28;20047;-75
2021/01/19 12:24:25;;;;;;;9.68;5.35;;;2.00;99.90;;;;;;5098179;28;20164;-74
2021/01/19 12:26:55;;;;;;;9.82;5.82;;;2.00;99.90;;;;;;5094522;28;20078;-73
2021/01/19 12:29:23;;;;;;;11.77;6.00;;;2.10;99.90;;;;;;5104279;28;20435;-74
2021/01/19 12:31:52;;;;;;;9.18;6.05;;;2.20;99.90;;;;;;5105494;28;20108;-73
2021/01/19 12:34:19;;;;;;;11.80;6.28;;;2.10;99.90;;;;;;5102166;28;20051;-75
2021/01/19 12:36:47;;;;;;;8.68;5.90;;;2.20;99.90;;;;;;5095804;28;20143;-74
2021/01/19 12:39:16;;;;;;;10.55;6.47;;;2.30;99.90;;;;;;5091165;28;20070;-74
2021/01/19 12:41:42;;;;;;;11.20;5.95;;;2.30;99.90;;;;;;5099510;28;20494;-74
2021/01/19 12:44:09;;;;;;;10.63;5.55;;;2.40;99.90;;;;;;5104983;28;20694;-74
2021/01/19 12:46:36;;;;;;;13.45;6.55;;;2.40;99.90;;;;;;5102715;28;20040;-75
2021/01/19 12:49:05;;;;;;;11.73;5.72;;;2.50;99.90;;;;;;5098026;28;20111;-74
2021/01/19 12:51:32;;;;;;;10.27;4.43;;;2.50;99.90;;;;;;5104878;28;20051;-74
2021/01/19 12:53:59;;;;;;;8.38;5.00;;;2.60;99.90;;;;;;5106012;28;20048;-74
2021/01/19 12:56:26;;;;;;;8.65;5.07;;;2.70;99.90;;;;;;5090338;28;20106;-75
2021/01/19 12:58:58;;;;;;;7.47;4.20;;;2.80;99.90;;;;;;5089627;28;20408;-74
2021/01/19 13:01:24;;;;;;;6.85;4.22;;;2.90;99.90;;;;;;5085746;28;20086;-74
2021/01/19 13:03:51;;;;;;;10.07;4.82;;;2.90;99.90;;;;;;5096169;28;20439;-74